Time;durP1;ratioP1;P1;durP2;ratioP2;P2;SDS_P1;SDS_P2;PMS_P1;PMS_P2;Temp;Humidity;BMP_temperature;BMP_pressure;BME280_temperature;BME280_humidity;BME280_pressure;Samples;Min_cycle;Max_cycle;Signal;HPM_P1;HPM_P2
2022/07/30 00:01:03;;;;;;;4.03;2.80;;;;;;;24.58;52.51;98232.38;4992507;28;20171;-63
2022/07/30 00:03:29;;;;;;;3.20;3.00;;;;;;;24.58;52.38;98234.22;4993080;28;20269;-63
2022/07/30 00:05:55;;;;;;;5.10;3.30;;;;;;;24.56;52.42;98239.69;4993195;28;20286;-64
2022/07/30 00:08:24;;;;;;;3.08;2.78;;;;;;;24.55;52.93;98238.84;4991720;28;20271;-64
2022/07/30 00:10:50;;;;;;;3.15;2.92;;;;;;;24.50;52.72;98229.88;4992952;28;20183;-63
2022/07/30 00:13:17;;;;;;;3.20;2.90;;;;;;;24.34;53.25;98231.03;4991664;28;20271;-63
2022/07/30 00:15:42;;;;;;;2.95;2.75;;;;;;;24.17;54.10;98225.44;4993141;28;20167;-64
2022/07/30 00:18:08;;;;;;;3.38;3.17;;;;;;;24.08;53.93;98214.22;4992856;28;20667;-63
2022/07/30 00:20:33;;;;;;;4.45;3.30;;;;;;;24.12;54.47;98222.56;4992950;28;20241;-63
2022/07/30 00:23:03;;;;;;;3.97;3.00;;;;;;;24.10;54.14;98215.63;4992817;28;20180;-63
2022/07/30 00:25:29;;;;;;;4.35;3.30;;;;;;;24.10;54.40;98215.63;4992657;28;20203;-63
2022/07/30 00:27:54;;;;;;;4.28;3.53;;;;;;;23.97;54.69;98201.53;4992710;28;20263;-63
2022/07/30 00:30:20;;;;;;;4.13;3.60;;;;;;;24.01;54.92;98202.75;4992762;28;20274;-63
2022/07/30 00:32:46;;;;;;;3.50;3.05;;;;;;;24.02;54.33;98202.56;4992488;28;20211;-63
2022/07/30 00:35:11;;;;;;;3.65;3.35;;;;;;;24.06;53.64;98215.41;4992653;28;20179;-63
2022/07/30 00:37:37;;;;;;;4.45;3.35;;;;;;;24.02;53.94;98219.44;4992625;28;20183;-63
2022/07/30 00:40:03;;;;;;;3.85;3.45;;;;;;;23.93;54.46;98210.84;4992773;28;20171;-64
2022/07/30 00:42:40;;;;;;;3.22;3.00;;;;;;;23.88;54.57;98213.25;4992497;28;20253;-64
2022/07/30 00:45:07;;;;;;;5.95;3.22;;;;;;;23.85;54.83;98213.63;4992502;28;20198;-63
2022/07/30 00:47:32;;;;;;;3.45;3.20;;;;;;;23.83;55.14;98209.53;4992661;28;20238;-62
2022/07/30 00:49:58;;;;;;;3.30;3.10;;;;;;;23.83;55.05;98202.41;4992557;28;20637;-63
2022/07/30 00:52:23;;;;;;;4.53;3.50;;;;;;;23.79;55.27;98209.91;4992524;28;20171;-62
2022/07/30 00:54:49;;;;;;;3.25;2.95;;;;;;;23.83;55.00;98205.88;4992889;28;20182;-63
2022/07/30 00:57:14;;;;;;;3.58;2.90;;;;;;;23.88;54.46;98207.16;4992427;28;20546;-63
2022/07/30 00:59:40;;;;;;;3.88;2.97;;;;;;;23.90;54.34;98205.13;4992412;28;20577;-63
2022/07/30 01:02:05;;;;;;;4.45;3.55;;;;;;;23.90;54.36;98207.78;4992425;28;20264;-63
2022/07/30 01:04:30;;;;;;;3.83;3.50;;;;;;;23.92;54.15;98207.38;4992372;28;20186;-62
2022/07/30 01:06:56;;;;;;;3.88;3.58;;;;;;;23.91;53.94;98202.31;4992285;28;20196;-63
2022/07/30 01:09:21;;;;;;;4.18;3.67;;;;;;;23.95;53.85;98213.31;4992355;28;20229;-62
2022/07/30 01:11:47;;;;;;;3.60;3.40;;;;;;;23.94;54.04;98212.47;4992787;28;20233;-63
2022/07/30 01:14:12;;;;;;;3.30;3.10;;;;;;;23.97;53.83;98211.28;4996155;28;20691;-62
2022/07/30 01:16:41;;;;;;;4.07;3.40;;;;;;;23.81;54.07;98201.78;4996094;28;20179;-62
2022/07/30 01:22:14;;;;;;;3.40;3.10;;;;;;;23.69;54.54;98214.69;4996447;28;20257;-62
2022/07/30 01:24:46;;;;;;;3.72;3.42;;;;;;;23.56;54.99;98213.81;4995928;28;20175;-63
2022/07/30 01:27:13;;;;;;;3.40;3.10;;;;;;;23.58;54.98;98205.66;4996195;28;20164;-62
2022/07/30 01:29:42;;;;;;;4.68;3.20;;;;;;;23.63;54.70;98229.69;4995822;28;20182;-63
2022/07/30 01:32:10;;;;;;;3.67;3.38;;;;;;;23.58;55.19;98221.50;4995789;28;20187;-64
2022/07/30 01:34:38;;;;;;;3.53;3.22;;;;;;;23.49;55.33;98206.81;4994530;28;20656;-63
2022/07/30 01:37:07;;;;;;;4.07;3.78;;;;;;;23.53;55.52;98208.09;4995718;28;20178;-63
2022/07/30 01:39:34;;;;;;;3.90;3.60;;;;;;;23.59;55.12;98207.31;4995653;28;20660;-63
2022/07/30 01:42:04;;;;;;;3.30;3.10;;;;;;;23.63;54.89;98200.63;4995648;28;20179;-63
2022/07/30 01:44:30;;;;;;;3.92;3.60;;;;;;;23.65;54.52;98198.63;4995566;28;20256;-63
2022/07/30 01:46:57;;;;;;;3.92;3.50;;;;;;;23.65;54.75;98190.72;4995507;28;20222;-63
2022/07/30 01:49:24;;;;;;;4.13;3.70;;;;;;;23.71;54.23;98187.28;4995647;28;20179;-63
2022/07/30 01:51:52;;;;;;;4.28;3.88;;;;;;;23.66;54.27;98187.06;4995484;28;20678;-63
2022/07/30 01:54:20;;;;;;;3.92;3.60;;;;;;;23.67;54.15;98185.03;4994198;28;20695;-63
2022/07/30 01:56:47;;;;;;;3.83;3.53;;;;;;;23.73;53.70;98187.91;4995399;28;20171;-63
2022/07/30 01:59:17;;;;;;;5.47;4.13;;;;;;;23.64;53.93;98192.53;4995377;28;20175;-64
2022/07/30 02:01:42;;;;;;;3.45;3.25;;;;;;;23.74;54.16;98191.16;4995539;28;20205;-63
2022/07/30 02:04:08;;;;;;;5.20;3.85;;;;;;;23.77;54.22;98205.03;4995415;28;20616;-63
2022/07/30 02:06:44;;;;;;;3.95;3.65;;;;;;;23.77;54.23;98197.88;4995144;28;20192;-63
2022/07/30 02:09:14;;;;;;;4.22;3.80;;;;;;;23.73;53.86;98210.69;4993903;28;20167;-63
2022/07/30 02:14:33;;;;;;;4.38;4.00;;;;;;;23.56;54.47;98197.13;4995415;28;20605;-63
2022/07/30 02:17:01;;;;;;;3.83;3.53;;;;;;;23.68;54.44;98196.41;4995084;28;20156;-61
2022/07/30 02:19:35;;;;;;;3.85;3.50;;;;;;;23.70;53.69;98191.75;4993587;28;20218;-62
2022/07/30 02:22:07;;;;;;;3.92;3.63;;;;;;;23.73;54.01;98193.19;4995057;28;20171;-62
2022/07/30 02:24:35;;;;;;;3.75;3.45;;;;;;;23.63;54.55;98199.63;4993951;28;20217;-63
2022/07/30 02:27:04;;;;;;;3.95;3.67;;;;;;;23.52;54.17;98194.06;4994699;28;20680;-63
2022/07/30 02:29:33;;;;;;;3.78;3.58;;;;;;;23.40;54.85;98197.41;4994764;28;20559;-62
2022/07/30 02:32:00;;;;;;;3.90;3.50;;;;;;;23.44;55.09;98209.22;4994565;28;20227;-62
2022/07/30 02:34:28;;;;;;;7.05;4.03;;;;;;;23.42;55.33;98204.13;4994629;28;20711;-62
2022/07/30 02:36:55;;;;;;;5.30;3.78;;;;;;;23.31;55.77;98203.84;4994680;28;20179;-62
2022/07/30 02:39:21;;;;;;;4.60;4.20;;;;;;;23.16;55.94;98216.25;4977128;28;20182;-62
2022/07/30 02:41:49;;;;;;;4.10;3.67;;;;;;;23.08;56.43;98205.81;4994605;28;20658;-61
2022/07/30 02:44:17;;;;;;;4.20;3.80;;;;;;;22.98;55.92;98203.50;4994442;28;20199;-61
2022/07/30 02:46:44;;;;;;;3.60;3.40;;;;;;;22.97;56.02;98211.59;4994453;28;20203;-63
2022/07/30 02:49:12;;;;;;;4.57;4.13;;;;;;;22.92;56.11;98214.78;4994388;28;20175;-62
2022/07/30 02:51:38;;;;;;;4.85;3.92;;;;;;;22.85;56.44;98207.81;4994364;28;20206;-62
2022/07/30 02:54:06;;;;;;;5.30;4.25;;;;;;;22.81;56.89;98212.63;5009373;28;20203;-63
2022/07/30 02:56:33;;;;;;;5.75;4.15;;;;;;;22.77;57.35;98218.44;4992975;28;20719;-63
2022/07/30 02:59:01;;;;;;;5.78;3.88;;;;;;;22.86;57.36;98209.44;4994224;28;20171;-62
2022/07/30 03:01:30;;;;;;;3.95;3.65;;;;;;;22.84;57.83;98216.72;4994017;28;20579;-62
2022/07/30 03:03:56;;;;;;;4.75;3.50;;;;;;;22.89;57.82;98203.78;4994086;28;20649;-62
2022/07/30 03:06:24;;;;;;;4.18;3.78;;;;;;;22.89;57.51;98201.16;5008938;28;20208;-64
2022/07/30 03:08:52;;;;;;;4.60;4.20;;;;;;;22.88;57.24;98204.78;4993920;28;20210;-62
2022/07/30 03:11:19;;;;;;;4.75;3.85;;;;;;;22.80;57.95;98189.91;4993917;28;20573;-62
2022/07/30 03:13:45;;;;;;;3.97;3.72;;;;;;;22.70;57.60;98193.81;4994031;28;20186;-63
2022/07/30 03:16:12;;;;;;;6.45;4.78;;;;;;;22.71;56.36;98195.44;4994345;28;20183;-62
2022/07/30 03:18:39;;;;;;;5.78;4.18;;;;;;;22.73;55.46;98198.75;4993788;28;20207;-62
2022/07/30 03:21:08;;;;;;;4.18;3.88;;;;;;;22.80;55.93;98197.00;4994052;28;20639;-62
2022/07/30 03:23:36;;;;;;;4.15;3.78;;;;;;;22.82;56.51;98203.72;4993758;28;20234;-63
2022/07/30 03:26:03;;;;;;;4.20;3.80;;;;;;;22.83;56.68;98192.16;4993621;28;20199;-63
2022/07/30 03:28:35;;;;;;;4.88;4.47;;;;;;;22.74;57.28;98190.66;4993620;28;20175;-63
2022/07/30 03:31:01;;;;;;;4.68;3.92;;;;;;;22.87;56.90;98184.69;4993876;28;20163;-63
2022/07/30 03:33:28;;;;;;;4.40;4.10;;;;;;;22.88;56.35;98192.41;4993359;28;20261;-62
2022/07/30 03:35:55;;;;;;;4.70;4.30;;;;;;;22.85;55.93;98197.25;4993665;28;20249;-63
2022/07/30 03:38:22;;;;;;;7.00;4.40;;;;;;;22.76;55.93;98193.06;4993491;28;20175;-63
2022/07/30 03:40:47;;;;;;;6.22;4.05;;;;;;;22.85;56.46;98184.06;4993434;28;20229;-63
2022/07/30 03:43:13;;;;;;;4.55;3.92;;;;;;;22.83;57.41;98178.97;4993632;28;20171;-64
2022/07/30 03:45:43;;;;;;;4.22;3.92;;;;;;;22.73;57.75;98189.00;4993782;28;20248;-63
2022/07/30 03:48:11;;;;;;;4.47;4.13;;;;;;;22.69;58.17;98182.47;4993609;28;20183;-63
2022/07/30 03:50:38;;;;;;;4.60;4.30;;;;;;;22.70;57.88;98194.66;4993273;28;20178;-64
2022/07/30 03:53:04;;;;;;;4.03;3.72;;;;;;;22.69;57.38;98181.63;4993218;28;20182;-64
2022/07/30 03:55:31;;;;;;;4.22;3.83;;;;;;;22.71;57.69;98195.44;4993162;28;20194;-64
2022/07/30 03:57:56;;;;;;;4.85;4.38;;;;;;;22.79;57.50;98198.00;4993144;28;20180;-63
2022/07/30 04:00:22;;;;;;;6.47;3.70;;;;;;;22.83;57.71;98200.06;4993179;28;20183;-63
2022/07/30 04:02:48;;;;;;;3.97;3.67;;;;;;;22.81;57.65;98182.78;4993043;28;20171;-62
2022/07/30 04:05:15;;;;;;;4.65;3.88;;;;;;;22.79;57.78;98192.72;4993298;28;20206;-64
2022/07/30 04:07:41;;;;;;;4.22;3.83;;;;;;;22.84;57.75;98195.63;4992941;28;20233;-62
2022/07/30 04:10:07;;;;;;;4.47;4.10;;;;;;;22.88;57.69;98195.06;4993278;28;20172;-63
2022/07/30 04:12:32;;;;;;;5.55;4.28;;;;;;;22.87;57.61;98201.34;4992879;28;20672;-62
2022/07/30 04:14:58;;;;;;;4.15;3.72;;;;;;;22.81;57.57;98194.16;4992879;28;20544;-63
2022/07/30 04:17:37;;;;;;;5.15;4.00;;;;;;;22.80;57.98;98200.47;4993155;28;20652;-62
2022/07/30 04:20:11;;;;;;;14.38;5.13;;;;;;;22.86;57.81;98198.88;4992987;28;20163;-64
2022/07/30 04:22:38;;;;;;;5.53;3.95;;;;;;;22.81;58.01;98206.53;4991590;28;20163;-63
2022/07/30 04:25:05;;;;;;;4.63;4.22;;;;;;;22.78;58.50;98212.19;4992693;28;20655;-64
2022/07/30 04:27:33;;;;;;;4.35;4.10;;;;;;;22.87;58.11;98205.78;4992738;28;20643;-63
2022/07/30 04:29:59;;;;;;;4.75;4.35;;;;;;;22.80;58.40;98210.19;4992687;28;20243;-63
2022/07/30 04:32:25;;;;;;;4.97;3.92;;;;;;;22.83;58.38;98209.78;4992424;28;20202;-64
2022/07/30 04:34:54;;;;;;;4.13;3.83;;;;;;;22.86;57.97;98206.78;4991408;28;20197;-63
2022/07/30 04:37:22;;;;;;;4.68;3.75;;;;;;;22.96;57.31;98216.03;4992589;28;20686;-62
2022/07/30 04:39:53;;;;;;;7.97;4.65;;;;;;;22.98;57.24;98202.66;4992852;28;20203;-63
2022/07/30 04:42:19;;;;;;;5.07;3.90;;;;;;;23.00;57.67;98217.31;5007727;28;20739;-63
2022/07/30 04:44:45;;;;;;;4.63;4.25;;;;;;;22.98;58.04;98213.22;4992589;28;20174;-63
2022/07/30 04:47:11;;;;;;;4.60;4.20;;;;;;;23.04;57.85;98217.75;4992445;28;20211;-63
2022/07/30 04:49:38;;;;;;;4.13;3.83;;;;;;;23.05;57.34;98209.66;4996838;28;20720;-61
2022/07/30 04:52:06;;;;;;;4.20;3.80;;;;;;;23.12;57.20;98213.16;4996606;28;20171;-62
2022/07/30 04:54:39;;;;;;;4.28;3.90;;;;;;;23.19;57.30;98213.25;4996801;28;20238;-62
2022/07/30 04:57:06;;;;;;;4.07;3.75;;;;;;;23.29;56.68;98216.38;4996551;28;20159;-62
2022/07/30 04:59:33;;;;;;;4.95;4.43;;;;;;;23.34;56.83;98203.44;4996430;28;20180;-61
2022/07/30 05:01:59;;;;;;;5.03;3.50;;;;;;;23.51;55.89;98213.56;4996384;28;20182;-61
2022/07/30 05:04:27;;;;;;;4.75;4.35;;;;;;;23.55;55.83;98211.34;4996375;28;20171;-62
2022/07/30 05:06:53;;;;;;;4.43;4.13;;;;;;;23.62;56.04;98206.94;4996259;28;20233;-62
2022/07/30 05:09:19;;;;;;;5.05;4.32;;;;;;;23.80;55.32;98205.44;4996216;28;20258;-62
2022/07/30 05:11:52;;;;;;;3.95;3.67;;;;;;;23.84;55.03;98219.88;4996230;28;20206;-62
2022/07/30 05:14:18;;;;;;;4.30;4.00;;;;;;;23.90;55.00;98207.78;4996407;28;20175;-62
2022/07/30 05:16:43;;;;;;;4.40;4.03;;;;;;;23.86;55.18;98208.13;4996096;28;20676;-62
2022/07/30 05:19:08;;;;;;;6.10;3.75;;;;;;;23.88;55.07;98212.44;4996157;28;20164;-62
2022/07/30 05:21:34;;;;;;;4.05;3.72;;;;;;;23.88;55.29;98207.16;4995979;28;20167;-62
2022/07/30 05:23:59;;;;;;;4.60;4.20;;;;;;;24.03;54.72;98195.47;4996175;28;20183;-62
2022/07/30 05:26:25;;;;;;;4.82;4.50;;;;;;;24.10;54.85;98210.34;4995864;28;20206;-63
2022/07/30 05:28:50;;;;;;;4.60;4.20;;;;;;;24.26;54.64;98211.88;4995945;28;20179;-62
2022/07/30 05:31:17;;;;;;;3.95;3.75;;;;;;;24.36;53.55;98213.13;4996156;28;20558;-62
2022/07/30 05:33:42;;;;;;;5.15;3.95;;;;;;;24.47;54.10;98212.56;4995546;28;20613;-62
2022/07/30 05:36:07;;;;;;;7.13;3.97;;;;;;;24.52;53.25;98223.38;4995847;28;20175;-62
2022/07/30 05:38:34;;;;;;;6.55;4.32;;;;;;;24.61;53.05;98216.94;4995794;28;20174;-61
2022/07/30 05:40:59;;;;;;;5.15;4.70;;;;;;;24.54;53.23;98215.22;4995653;28;20554;-62
2022/07/30 05:43:24;;;;;;;4.30;3.90;;;;;;;24.71;52.87;98209.44;4995700;28;20185;-63
2022/07/30 05:45:50;;;;;;;4.75;4.45;;;;;;;24.83;52.74;98210.50;4995506;28;20269;-63
2022/07/30 05:48:15;;;;;;;5.30;4.20;;;;;;;24.77;52.23;98205.16;4995553;28;20257;-61
2022/07/30 05:50:40;;;;;;;4.82;4.43;;;;;;;24.86;51.91;98207.47;4995519;28;20167;-61
2022/07/30 05:53:06;;;;;;;4.40;4.10;;;;;;;25.01;51.08;98209.94;4995483;28;20598;-62
2022/07/30 05:55:31;;;;;;;9.73;4.70;;;;;;;24.97;51.30;98212.16;4995717;28;20168;-61
2022/07/30 05:57:57;;;;;;;4.45;4.10;;;;;;;25.02;50.66;98207.06;4995264;28;20191;-62
2022/07/30 06:00:22;;;;;;;5.28;4.78;;;;;;;25.13;50.74;98213.63;4995358;28;20258;-61
2022/07/30 06:02:47;;;;;;;5.07;4.57;;;;;;;25.22;51.02;98207.94;4995483;28;20167;-61
2022/07/30 06:05:13;;;;;;;4.30;3.97;;;;;;;25.37;50.56;98213.88;4995316;28;20198;-62
2022/07/30 06:07:38;;;;;;;6.80;4.43;;;;;;;25.38;50.61;98215.50;4995524;28;20221;-62
2022/07/30 06:10:04;;;;;;;5.15;4.75;;;;;;;25.52;50.15;98216.34;4995317;28;20270;-62
2022/07/30 06:12:30;;;;;;;4.95;4.13;;;;;;;25.59;49.36;98207.38;4995085;28;20175;-62
2022/07/30 06:14:56;;;;;;;5.90;5.30;;;;;;;25.63;49.65;98219.22;4995018;28;20174;-61
2022/07/30 06:17:22;;;;;;;5.43;4.97;;;;;;;25.73;49.21;98222.25;4995099;28;20250;-62
2022/07/30 06:19:47;;;;;;;5.65;4.07;;;;;;;25.74;48.60;98218.59;4994986;28;20679;-62
2022/07/30 06:22:13;;;;;;;4.30;3.83;;;;;;;25.85;48.38;98217.97;4994932;28;20175;-61
2022/07/30 06:24:39;;;;;;;4.30;3.90;;;;;;;25.93;48.14;98224.91;4994994;28;20232;-61
2022/07/30 06:27:04;;;;;;;4.25;3.95;;;;;;;25.91;48.22;98211.06;4994753;28;20672;-63
2022/07/30 06:29:30;;;;;;;4.40;4.00;;;;;;;25.94;48.41;98215.97;4994635;28;20681;-61
2022/07/30 06:31:55;;;;;;;5.30;4.80;;;;;;;26.09;48.00;98212.06;4994723;28;20194;-63
2022/07/30 06:34:21;;;;;;;4.60;4.25;;;;;;;26.25;48.01;98213.44;4994838;28;20199;-63
2022/07/30 06:36:47;;;;;;;4.63;4.22;;;;;;;26.35;48.04;98216.47;4994703;28;20706;-63
2022/07/30 06:39:12;;;;;;;6.63;4.43;;;;;;;26.32;48.17;98203.63;4994582;28;20313;-62
2022/07/30 06:41:38;;;;;;;4.40;4.10;;;;;;;26.47;47.57;98212.94;4993182;28;20579;-63
2022/07/30 06:44:03;;;;;;;6.68;4.25;;;;;;;26.61;46.94;98214.56;4994474;28;20175;-63
2022/07/30 06:46:29;;;;;;;4.10;3.80;;;;;;;26.59;47.15;98200.69;4994539;28;20275;-62
2022/07/30 06:48:54;;;;;;;5.00;4.60;;;;;;;26.83;46.94;98213.22;4994432;28;20266;-62
2022/07/30 06:51:20;;;;;;;5.60;4.90;;;;;;;26.96;46.71;98215.84;4994605;28;20175;-65
2022/07/30 06:53:45;;;;;;;4.38;4.05;;;;;;;27.09;47.37;98217.56;4994306;28;20274;-63
2022/07/30 06:56:12;;;;;;;4.53;3.90;;;;;;;27.20;46.33;98219.59;4994240;28;20175;-62
2022/07/30 06:58:38;;;;;;;5.10;4.70;;;;;;;27.31;45.95;98222.38;4994529;28;20206;-62
2022/07/30 07:01:03;;;;;;;5.00;4.50;;;;;;;27.44;46.39;98224.13;4994194;28;20559;-62
2022/07/30 07:03:28;;;;;;;4.30;3.90;;;;;;;27.55;48.07;98226.06;4994153;28;20171;-62
2022/07/30 07:05:54;;;;;;;7.22;4.45;;;;;;;27.36;49.26;98224.38;4994171;28;20246;-63
2022/07/30 07:08:19;;;;;;;5.70;4.45;;;;;;;27.48;48.68;98226.16;4994044;28;20708;-62
2022/07/30 07:10:45;;;;;;;6.32;3.90;;;;;;;27.62;48.72;98224.19;4993499;28;20167;-63
2022/07/30 07:13:10;;;;;;;6.35;5.35;;;;;;;27.71;48.34;98221.06;4994008;28;20684;-63
2022/07/30 07:15:36;;;;;;;9.15;7.95;;;;;;;27.82;48.72;98220.34;4993944;28;20608;-64
2022/07/30 07:18:01;;;;;;;8.50;5.95;;;;;;;27.86;48.10;98216.22;4993863;28;20648;-64
2022/07/30 07:20:26;;;;;;;12.85;5.20;;;;;;;27.96;48.33;98205.91;4994003;28;20173;-63
2022/07/30 07:22:52;;;;;;;6.80;6.25;;;;;;;28.00;47.91;98207.09;4993796;28;20641;-62
2022/07/30 07:25:17;;;;;;;5.65;4.97;;;;;;;27.82;48.51;98208.91;4993646;28;20688;-63
2022/07/30 07:27:43;;;;;;;4.63;4.22;;;;;;;28.00;47.74;98207.09;4994192;28;20182;-62
2022/07/30 07:30:09;;;;;;;4.85;4.20;;;;;;;28.14;47.63;98213.91;4993780;28;20182;-63
2022/07/30 07:32:35;;;;;;;4.53;4.03;;;;;;;28.30;47.39;98207.19;4993395;28;20602;-63
2022/07/30 07:35:01;;;;;;;5.32;3.80;;;;;;;28.44;47.55;98198.03;4993844;28;20206;-63
2022/07/30 07:37:26;;;;;;;8.55;4.88;;;;;;;28.54;46.88;98201.81;4993478;28;20633;-64
2022/07/30 07:39:52;;;;;;;5.95;4.50;;;;;;;28.60;46.71;98195.59;4993679;28;20175;-64
2022/07/30 07:42:17;;;;;;;5.60;4.00;;;;;;;28.75;46.95;98195.22;4993685;28;20175;-64
2022/07/30 07:44:43;;;;;;;7.43;4.13;;;;;;;28.92;46.16;98190.88;4993542;28;20167;-62
2022/07/30 07:47:08;;;;;;;4.43;4.00;;;;;;;29.02;45.74;98186.66;4993309;28;20581;-63
2022/07/30 07:49:33;;;;;;;4.07;3.78;;;;;;;29.06;45.69;98190.50;4993792;28;20317;-63
2022/07/30 07:51:59;;;;;;;8.90;4.22;;;;;;;29.03;45.83;98182.16;4993496;28;20193;-63
2022/07/30 07:54:24;;;;;;;5.38;4.20;;;;;;;29.07;45.94;98189.44;4993210;28;20179;-63
2022/07/30 07:56:50;;;;;;;7.38;4.05;;;;;;;29.11;45.86;98189.81;4993189;28;20250;-63
2022/07/30 07:59:16;;;;;;;8.07;4.03;;;;;;;29.23;45.01;98191.47;4993408;28;20617;-63
2022/07/30 08:01:42;;;;;;;5.20;4.32;;;;;;;29.24;45.05;98190.44;4993154;28;20258;-62
2022/07/30 08:04:07;;;;;;;5.07;4.05;;;;;;;29.39;44.90;98185.47;4993111;28;20218;-62
2022/07/30 08:06:33;;;;;;;6.85;4.25;;;;;;;29.26;45.25;98184.88;4993157;28;20195;-63
2022/07/30 08:09:00;;;;;;;5.68;3.83;;;;;;;29.37;45.52;98184.88;4992958;28;20199;-63
2022/07/30 08:11:25;;;;;;;4.63;4.15;;;;;;;29.42;44.85;98190.34;4993214;28;20236;-63
2022/07/30 08:13:51;;;;;;;4.82;4.00;;;;;;;29.36;44.60;98177.94;4992909;28;20634;-63
2022/07/30 08:16:17;;;;;;;4.13;3.70;;;;;;;29.43;44.71;98173.31;4992868;28;20254;-62
2022/07/30 08:18:42;;;;;;;6.13;3.80;;;;;;;29.55;44.81;98184.81;4992839;28;20214;-62
2022/07/30 08:21:08;;;;;;;4.25;3.95;;;;;;;29.69;44.23;98182.75;4992448;28;20218;-62
2022/07/30 08:23:33;;;;;;;6.38;4.05;;;;;;;29.69;43.74;98183.56;4992449;28;20226;-63
2022/07/30 08:25:59;;;;;;;5.18;4.18;;;;;;;29.78;43.87;98179.50;4992577;28;20197;-63
2022/07/30 08:28:25;;;;;;;6.57;3.85;;;;;;;29.91;42.97;98183.81;4992662;28;20175;-63
2022/07/30 08:30:50;;;;;;;5.05;4.10;;;;;;;30.00;42.93;98179.72;4993009;28;20569;-64
2022/07/30 08:33:16;;;;;;;5.53;3.83;;;;;;;30.10;42.04;98177.31;4992515;28;20215;-63
2022/07/30 08:35:42;;;;;;;5.70;3.92;;;;;;;30.09;41.18;98176.50;4992661;28;20175;-64
2022/07/30 08:38:08;;;;;;;3.90;3.38;;;;;;;30.18;41.34;98177.78;4992909;28;20179;-63
2022/07/30 08:40:34;;;;;;;5.18;3.80;;;;;;;30.25;41.57;98173.09;4992569;28;20179;-63
2022/07/30 08:43:05;;;;;;;8.52;3.60;;;;;;;30.31;42.21;98172.16;4992832;28;20225;-63
2022/07/30 08:45:31;;;;;;;3.92;3.47;;;;;;;30.42;41.86;98166.00;4992702;28;20274;-63
2022/07/30 08:47:59;;;;;;;5.90;4.10;;;;;;;30.49;42.27;98174.66;4992799;28;20179;-63
2022/07/30 08:50:25;;;;;;;6.47;4.00;;;;;;;30.46;41.56;98155.63;4992795;28;20183;-64
2022/07/30 08:52:54;;;;;;;9.35;4.35;;;;;;;30.52;41.39;98168.88;4993251;28;20182;-63
2022/07/30 08:55:22;;;;;;;4.53;4.13;;;;;;;30.58;41.18;98167.09;4992420;28;20174;-63
2022/07/30 08:57:48;;;;;;;5.32;3.80;;;;;;;30.60;40.73;98160.47;4992355;28;20727;-63
2022/07/30 09:00:15;;;;;;;6.35;4.63;;;;;;;30.50;41.32;98165.59;4992440;28;20175;-64
2022/07/30 09:02:41;;;;;;;7.57;3.70;;;;;;;30.47;40.58;98151.91;4992393;28;20210;-63
2022/07/30 09:05:08;;;;;;;5.18;3.60;;;;;;;30.61;40.49;98150.59;4992411;28;20202;-64
2022/07/30 09:07:35;;;;;;;6.93;3.78;;;;;;;30.75;40.40;98155.47;4992556;28;20716;-64
2022/07/30 09:10:01;;;;;;;5.43;3.70;;;;;;;30.72;40.33;98153.25;4992303;28;20257;-64
2022/07/30 09:12:38;;;;;;;4.97;4.20;;;;;;;30.80;39.91;98146.72;4992365;28;20179;-66
2022/07/30 09:15:04;;;;;;;4.15;3.80;;;;;;;30.85;39.26;98146.81;4992256;28;20270;-64
2022/07/30 09:17:43;;;;;;;5.63;3.92;;;;;;;30.90;39.77;98134.34;4992626;28;20254;-64
2022/07/30 09:20:09;;;;;;;6.00;4.13;;;;;;;30.90;37.94;98142.34;4992262;28;20218;-64
2022/07/30 09:22:49;;;;;;;5.63;4.00;;;;;;;30.91;37.45;98136.00;4991622;28;20175;-64
2022/07/30 09:25:15;;;;;;;5.57;3.90;;;;;;;31.06;37.19;98138.91;4990365;28;20563;-64
2022/07/30 09:27:48;;;;;;;4.63;3.88;;;;;;;31.16;37.16;98123.03;4991965;28;20183;-64
2022/07/30 09:30:15;;;;;;;3.67;3.38;;;;;;;31.27;37.38;98130.22;4992336;28;20211;-64
2022/07/30 09:32:47;;;;;;;5.40;3.78;;;;;;;31.43;37.03;98124.03;4992495;28;20593;-63
2022/07/30 09:35:14;;;;;;;4.93;3.80;;;;;;;31.55;37.18;98122.09;4996398;28;20206;-63
2022/07/30 09:37:39;;;;;;;4.00;3.70;;;;;;;31.50;37.26;98126.56;4995800;28;20167;-64
2022/07/30 09:40:16;;;;;;;4.57;3.80;;;;;;;31.63;36.92;98127.03;4995730;28;20612;-63
2022/07/30 09:42:42;;;;;;;3.50;3.30;;;;;;;31.58;35.86;98118.94;4995718;28;20194;-63
2022/07/30 09:45:13;;;;;;;4.72;3.13;;;;;;;31.44;36.46;98098.94;4994434;28;20179;-64
2022/07/30 09:47:43;;;;;;;5.50;4.13;;;;;;;31.71;36.88;98110.53;4996073;28;20175;-64
2022/07/30 09:50:14;;;;;;;4.75;3.50;;;;;;;31.84;37.14;98110.25;4994688;28;20178;-64
2022/07/30 09:52:41;;;;;;;4.25;3.10;;;;;;;31.95;35.60;98120.00;4995794;28;20191;-64
2022/07/30 09:55:07;;;;;;;3.42;3.13;;;;;;;32.04;35.56;98109.69;4995461;28;20175;-64
2022/07/30 09:57:33;;;;;;;4.05;3.03;;;;;;;32.18;35.29;98105.59;4995622;28;20250;-64
2022/07/30 10:00:18;;;;;;;4.25;3.17;;;;;;;32.13;34.40;98100.16;4995668;28;20684;-63
2022/07/30 10:02:44;;;;;;;3.13;2.92;;;;;;;32.09;34.09;98096.38;4995640;28;20199;-63
2022/07/30 10:05:14;;;;;;;7.63;3.95;;;;;;;32.16;35.18;98091.63;4995222;28;20178;-63
2022/07/30 10:07:50;;;;;;;8.27;2.95;;;;;;;32.22;34.46;98096.81;4995478;28;20183;-64
2022/07/30 10:10:18;;;;;;;3.55;3.25;;;;;;;32.33;33.56;98092.38;4993967;28;20178;-64
2022/07/30 10:12:45;;;;;;;3.35;3.10;;;;;;;32.30;32.64;98093.69;4995159;28;20183;-63
2022/07/30 10:15:12;;;;;;;4.20;3.25;;;;;;;32.32;33.52;98083.56;4995336;28;20186;-63
2022/07/30 10:17:38;;;;;;;4.70;2.80;;;;;;;32.40;33.17;98088.47;4995332;28;20555;-63
2022/07/30 10:20:06;;;;;;;4.13;3.33;;;;;;;32.52;34.25;98085.66;4994938;28;20183;-64
2022/07/30 10:22:34;;;;;;;6.07;3.20;;;;;;;32.63;34.31;98090.06;4994903;28;20175;-64
2022/07/30 10:25:01;;;;;;;3.55;3.00;;;;;;;32.65;33.55;98086.03;4994886;28;20258;-63
2022/07/30 10:27:26;;;;;;;3.08;2.88;;;;;;;32.78;33.84;98088.38;4994845;28;20199;-63
2022/07/30 10:29:53;;;;;;;3.00;2.80;;;;;;;32.99;33.70;98084.78;4995412;28;20182;-63
2022/07/30 10:32:19;;;;;;;7.28;3.08;;;;;;;33.16;32.79;98087.38;4994743;28;20205;-63
2022/07/30 10:34:46;;;;;;;4.88;3.00;;;;;;;33.37;32.67;98084.59;4994895;28;20175;-63
2022/07/30 10:37:15;;;;;;;3.78;3.38;;;;;;;33.39;31.39;98077.09;4994636;28;20632;-64
2022/07/30 10:39:55;;;;;;;4.18;3.00;;;;;;;33.48;30.51;98080.91;4993414;28;20238;-64
2022/07/30 10:42:27;;;;;;;2.80;2.60;;;;;;;33.44;29.87;98079.81;4994954;28;20221;-63
2022/07/30 10:45:11;;;;;;;3.75;3.00;;;;;;;33.34;30.98;98068.22;4993873;28;20198;-63
2022/07/30 10:47:38;;;;;;;3.35;2.90;;;;;;;33.46;30.50;98064.25;4994648;28;20256;-63
2022/07/30 10:50:08;;;;;;;8.57;3.35;;;;;;;33.71;30.09;98061.72;4994473;28;20175;-63
2022/07/30 10:52:45;;;;;;;8.95;4.40;;;;;;;33.95;29.09;98062.94;4994704;28;20176;-63
2022/07/30 10:55:14;;;;;;;3.80;3.50;;;;;;;34.20;29.89;98057.66;4994376;28;20185;-63
2022/07/30 10:58:02;;;;;;;4.53;3.22;;;;;;;34.05;28.94;98060.28;4994442;28;20675;-64
2022/07/30 11:00:29;;;;;;;2.80;2.60;;;;;;;34.30;29.00;98052.38;4994254;28;20186;-63
2022/07/30 11:03:25;;;;;;;2.90;2.38;;;;;;;34.46;27.91;98048.66;4994487;28;20294;-64
2022/07/30 11:06:13;;;;;;;2.58;2.47;;;;;;;34.34;28.49;98049.94;4994223;28;20270;-63
2022/07/30 11:08:41;;;;;;;2.45;2.30;;;;;;;34.61;28.75;98043.28;4984806;28;20198;-64
2022/07/30 11:11:21;;;;;;;2.60;2.50;;;;;;;34.86;28.20;98034.47;4993406;28;20207;-63
2022/07/30 11:13:58;;;;;;;4.03;2.53;;;;;;;35.16;27.83;98048.72;4994321;28;20190;-64
2022/07/30 11:16:48;;;;;;;3.17;2.75;;;;;;;35.33;27.68;98041.19;4994327;28;20187;-64
2022/07/30 11:19:23;;;;;;;5.70;2.53;;;;;;;35.51;27.87;98037.13;4993787;28;20265;-64
2022/07/30 11:22:27;;;;;;;3.05;2.63;;;;;;;35.52;26.81;98034.16;5009008;28;20206;-64
2022/07/30 11:24:54;;;;;;;2.90;2.70;;;;;;;35.72;26.62;98033.31;4994166;28;20167;-64
2022/07/30 11:27:37;;;;;;;3.75;2.83;;;;;;;35.86;26.99;98027.06;4993981;28;20612;-64
2022/07/30 11:30:06;;;;;;;2.55;2.45;;;;;;;36.10;27.77;98022.66;4993737;28;20182;-64
2022/07/30 11:32:33;;;;;;;2.50;2.30;;;;;;;36.00;27.13;98022.69;4993602;28;20333;-63
2022/07/30 11:35:21;;;;;;;5.28;2.58;;;;;;;36.06;27.09;98013.50;4993544;28;20253;-64
2022/07/30 11:37:57;;;;;;;6.57;2.55;;;;;;;36.26;26.67;98013.41;4993606;28;20167;-64
2022/07/30 11:40:24;;;;;;;2.28;2.08;;;;;;;36.35;25.50;98010.94;4993494;28;20178;-64
2022/07/30 11:42:50;;;;;;;2.42;2.28;;;;;;;36.19;25.02;98004.03;4993464;28;20671;-63